Time;durP1;ratioP1;P1;durP2;ratioP2;P2;SDS_P1;SDS_P2;PMS_P1;PMS_P2;Temp;Humidity;BMP_temperature;BMP_pressure;BME280_temperature;BME280_humidity;BME280_pressure;Samples;Min_cycle;Max_cycle;Signal;HPM_P1;HPM_P2
2023/01/11 00:00:17;;;;;;;11.20;3.80;;;5.00;99.90;;;;;;5019353;28;20486;-70
2023/01/11 00:02:44;;;;;;;15.33;4.00;;;5.00;99.90;;;;;;5012472;28;20512;-71
2023/01/11 00:05:11;;;;;;;11.00;4.53;;;5.00;99.90;;;;;;5011852;28;20474;-70
2023/01/11 00:07:39;;;;;;;9.60;4.20;;;5.00;99.90;;;;;;5019848;28;20503;-71
2023/01/11 00:10:07;;;;;;;7.73;4.00;;;5.00;99.90;;;;;;5013349;28;20475;-70
2023/01/11 00:12:34;;;;;;;14.60;3.90;;;5.00;99.90;;;;;;5014020;28;20455;-71
2023/01/11 00:15:00;;;;;;;14.83;4.87;;;5.00;99.90;;;;;;5012345;28;20871;-71
2023/01/11 00:17:29;;;;;;;12.87;4.83;;;5.00;99.90;;;;;;5017311;28;20504;-71
2023/01/11 00:19:56;;;;;;;9.47;4.43;;;5.00;99.90;;;;;;5027189;28;20832;-71
2023/01/11 00:22:23;;;;;;;11.53;4.30;;;5.00;99.90;;;;;;5012953;28;20869;-71
2023/01/11 00:24:49;;;;;;;9.60;4.57;;;5.00;99.90;;;;;;5011477;28;21009;-71
2023/01/11 00:27:16;;;;;;;13.63;4.80;;;5.00;99.90;;;;;;5014316;28;20455;-70
2023/01/11 00:29:42;;;;;;;13.27;5.87;;;5.00;99.90;;;;;;5015139;28;20955;-70
2023/01/11 00:32:10;;;;;;;9.37;4.23;;;5.00;99.90;;;;;;5017285;28;20457;-71
2023/01/11 00:34:38;;;;;;;7.40;4.37;;;5.00;99.90;;;;;;5013684;28;20513;-71
2023/01/11 00:37:04;;;;;;;17.80;5.30;;;5.00;99.90;;;;;;5011632;28;20447;-71
2023/01/11 00:39:31;;;;;;;5.73;3.40;;;5.10;99.90;;;;;;5013221;28;20493;-71
2023/01/11 00:50:11;;;;;;;5.30;3.30;;;5.20;99.90;;;;;;5011333;28;20496;-70
2023/01/11 00:52:38;;;;;;;7.10;3.50;;;5.20;99.90;;;;;;5019322;28;20457;-71
2023/01/11 00:55:05;;;;;;;10.27;3.97;;;5.20;99.90;;;;;;5017237;28;20454;-70
2023/01/11 00:57:32;;;;;;;8.60;3.50;;;5.20;99.90;;;;;;5018301;28;20455;-71
2023/01/11 00:59:59;;;;;;;6.80;4.47;;;5.20;99.90;;;;;;5011242;28;20926;-70
2023/01/11 01:02:26;;;;;;;8.17;4.93;;;5.20;99.90;;;;;;5011329;28;20467;-71
2023/01/11 01:04:52;;;;;;;8.40;4.73;;;5.10;99.90;;;;;;5011108;28;20950;-70
2023/01/11 01:07:20;;;;;;;7.10;4.30;;;5.10;99.90;;;;;;5014570;28;20959;-72
2023/01/11 01:09:47;;;;;;;14.30;4.80;;;5.10;99.90;;;;;;5016453;28;20513;-71
2023/01/11 01:14:24;;;;;;;10.23;4.50;;;5.10;99.90;;;;;;5011317;28;20451;-70
2023/01/11 01:14:59;;;;;;;9.57;4.27;;;5.10;99.90;;;;;;5020144;28;20468;-70
2023/01/11 01:17:26;;;;;;;8.03;4.00;;;5.10;99.90;;;;;;5027498;28;20844;-70
2023/01/11 01:19:53;;;;;;;6.90;4.23;;;5.20;99.90;;;;;;5011171;28;20769;-71
2023/01/11 01:22:21;;;;;;;3.97;3.20;;;5.20;99.90;;;;;;5011949;28;20459;-70
2023/01/11 01:24:48;;;;;;;7.57;3.73;;;5.20;99.90;;;;;;5017063;28;20489;-70
2023/01/11 01:27:16;;;;;;;9.13;4.00;;;5.20;99.90;;;;;;5010642;28;20451;-71
2023/01/11 01:29:43;;;;;;;7.43;4.17;;;5.20;99.90;;;;;;5011999;28;20899;-71
2023/01/11 01:32:09;;;;;;;3.30;2.70;;;5.20;99.90;;;;;;5022508;28;20454;-70
2023/01/11 01:34:36;;;;;;;7.80;3.13;;;5.20;99.90;;;;;;5022383;28;20508;-70
2023/01/11 01:37:03;;;;;;;3.17;2.87;;;5.20;99.90;;;;;;5011220;28;20455;-70
2023/01/11 01:39:31;;;;;;;5.70;2.37;;;5.30;99.90;;;;;;5014401;28;20998;-70
2023/01/11 01:41:58;;;;;;;6.20;2.70;;;5.30;99.90;;;;;;5014833;28;20470;-70
2023/01/11 01:44:56;;;;;;;3.30;2.40;;;5.40;99.90;;;;;;5018514;28;20446;-70
2023/01/11 01:47:29;;;;;;;3.83;2.37;;;5.40;99.90;;;;;;5014551;28;20500;-70
2023/01/11 01:49:57;;;;;;;6.10;2.60;;;5.50;99.90;;;;;;5014096;28;20798;-70
2023/01/11 01:52:27;;;;;;;2.30;1.87;;;5.50;99.90;;;;;;5017043;28;20462;-70
2023/01/11 01:54:57;;;;;;;6.70;2.30;;;5.60;99.90;;;;;;5018856;28;20470;-70
2023/01/11 01:57:29;;;;;;;2.70;2.23;;;5.60;99.90;;;;;;5017024;28;20457;-70
2023/01/11 02:00:00;;;;;;;4.00;2.40;;;5.60;99.90;;;;;;5033106;28;20541;-70
2023/01/11 02:02:27;;;;;;;11.53;2.30;;;5.60;99.90;;;;;;5018413;28;20466;-70
2023/01/11 02:04:56;;;;;;;7.10;2.20;;;5.60;99.90;;;;;;5018594;28;20450;-71
2023/01/11 02:07:27;;;;;;;4.77;2.43;;;5.60;99.90;;;;;;5014328;28;20454;-70
2023/01/11 02:09:59;;;;;;;8.20;3.57;;;5.60;99.90;;;;;;5013982;28;20459;-70
2023/01/11 02:12:30;;;;;;;8.20;3.23;;;5.60;99.90;;;;;;5019239;28;20453;-70
2023/01/11 02:14:58;;;;;;;7.90;3.57;;;5.50;99.90;;;;;;5023004;28;20458;-70
2023/01/11 02:17:25;;;;;;;9.30;3.63;;;5.50;99.90;;;;;;5014248;28;20517;-70
2023/01/11 02:19:57;;;;;;;7.80;4.50;;;5.40;99.90;;;;;;5013599;28;20914;-71
2023/01/11 02:23:04;;;;;;;6.03;3.90;;;5.30;99.90;;;;;;5018907;28;20504;-70
2023/01/11 02:26:25;;;;;;;3.87;3.50;;;5.30;99.90;;;;;;4968989;28;20491;-70
2023/01/11 02:28:58;;;;;;;13.90;4.73;;;5.20;99.90;;;;;;5007502;28;20529;-70
2023/01/11 02:31:31;;;;;;;8.07;4.30;;;5.20;99.90;;;;;;5006578;28;20463;-70
2023/01/11 02:34:10;;;;;;;9.73;4.10;;;5.20;99.90;;;;;;5019376;28;20454;-71
2023/01/11 02:36:48;;;;;;;9.20;3.97;;;5.20;99.90;;;;;;5021552;28;20951;-71
2023/01/11 02:39:21;;;;;;;10.00;4.10;;;5.20;99.90;;;;;;5013768;28;20478;-71
2023/01/11 02:45:02;;;;;;;13.60;5.70;;;5.20;99.90;;;;;;5014913;28;20450;-71
2023/01/11 02:47:35;;;;;;;8.73;5.00;;;5.30;99.90;;;;;;5013461;28;20455;-70
2023/01/11 02:50:09;;;;;;;13.37;5.47;;;5.30;99.90;;;;;;5018036;28;20470;-71
2023/01/11 02:52:42;;;;;;;6.13;4.63;;;5.30;99.90;;;;;;5020614;28;21054;-70
2023/01/11 02:55:12;;;;;;;17.33;5.17;;;5.30;99.90;;;;;;5020512;28;20454;-71
2023/01/11 02:57:41;;;;;;;6.57;5.33;;;5.30;99.90;;;;;;5013086;28;20455;-70
2023/01/11 03:00:12;;;;;;;7.70;5.60;;;5.20;99.90;;;;;;5019186;28;20525;-70
2023/01/11 03:02:39;;;;;;;11.97;6.53;;;5.20;99.90;;;;;;5021270;28;20508;-71
2023/01/11 03:05:11;;;;;;;11.93;6.30;;;5.20;99.90;;;;;;5020423;28;20458;-71
2023/01/11 03:07:55;;;;;;;11.90;6.70;;;5.20;99.90;;;;;;5013028;28;20517;-70
2023/01/11 03:10:35;;;;;;;13.57;6.50;;;5.10;99.90;;;;;;5014335;28;20471;-70
2023/01/11 03:13:13;;;;;;;11.20;6.40;;;5.10;99.90;;;;;;5019345;28;20868;-70
2023/01/11 03:16:09;;;;;;;16.23;6.20;;;5.10;99.90;;;;;;5012634;28;20864;-71
2023/01/11 03:18:47;;;;;;;13.20;6.20;;;5.10;99.90;;;;;;5020028;28;20470;-71
2023/01/11 03:21:34;;;;;;;17.53;7.70;;;5.10;99.90;;;;;;5015659;28;20489;-71
2023/01/11 03:24:10;;;;;;;13.57;7.40;;;5.10;99.90;;;;;;5018928;28;20505;-70
2023/01/11 03:26:48;;;;;;;14.33;7.30;;;5.20;99.90;;;;;;5011947;28;20454;-71
2023/01/11 03:29:22;;;;;;;14.03;7.27;;;5.20;99.90;;;;;;5014357;28;20450;-70
2023/01/11 03:31:57;;;;;;;8.90;6.00;;;5.20;99.90;;;;;;5013504;28;20539;-71
2023/01/11 03:34:32;;;;;;;9.80;6.97;;;5.20;99.90;;;;;;5017917;28;20450;-71
2023/01/11 03:37:05;;;;;;;8.40;6.73;;;5.20;99.90;;;;;;5012280;28;20455;-70
2023/01/11 03:39:36;;;;;;;11.60;7.73;;;5.30;99.90;;;;;;5019784;28;20450;-70
2023/01/11 03:42:05;;;;;;;10.70;7.37;;;5.30;99.90;;;;;;5015534;28;20932;-70
2023/01/11 03:44:38;;;;;;;10.50;7.80;;;5.30;99.90;;;;;;5016736;28;20512;-70
2023/01/11 03:47:10;;;;;;;15.60;7.87;;;5.30;99.90;;;;;;5016759;28;20508;-71
2023/01/11 03:49:40;;;;;;;12.70;8.13;;;5.30;99.90;;;;;;5013767;28;20872;-70
2023/01/11 03:52:11;;;;;;;11.17;7.17;;;5.30;99.90;;;;;;5015508;28;20507;-70
2023/01/11 03:54:38;;;;;;;9.27;6.20;;;5.30;99.90;;;;;;5015928;28;20550;-70
2023/01/11 03:57:10;;;;;;;7.10;5.20;;;5.40;99.90;;;;;;5012149;28;20443;-70
2023/01/11 03:59:38;;;;;;;6.03;4.37;;;5.40;99.90;;;;;;5012411;28;20454;-71
2023/01/11 04:02:15;;;;;;;6.47;4.70;;;5.50;99.90;;;;;;5020892;28;20984;-70
2023/01/11 04:04:42;;;;;;;5.83;5.03;;;5.60;99.90;;;;;;5014688;28;20462;-70
2023/01/11 04:07:08;;;;;;;7.60;5.37;;;5.70;99.90;;;;;;5011738;28;20446;-70
2023/01/11 04:09:35;;;;;;;4.80;3.67;;;5.70;99.90;;;;;;5023186;28;20454;-70
2023/01/11 04:12:01;;;;;;;6.07;3.33;;;5.80;99.90;;;;;;5014915;28;20532;-70
2023/01/11 04:14:28;;;;;;;4.60;3.40;;;5.90;99.90;;;;;;5016776;28;20466;-70
2023/01/11 04:16:55;;;;;;;9.40;4.33;;;6.00;99.90;;;;;;5013667;28;20935;-70
2023/01/11 04:19:23;;;;;;;6.23;3.90;;;6.00;99.90;;;;;;5022649;28;20469;-70
2023/01/11 04:21:49;;;;;;;4.40;3.57;;;6.10;99.90;;;;;;5021726;28;20496;-71
2023/01/11 04:24:17;;;;;;;5.87;3.27;;;6.10;99.90;;;;;;5016980;28;20930;-70
2023/01/11 04:26:44;;;;;;;8.63;3.63;;;6.20;99.90;;;;;;5020219;28;20465;-71
2023/01/11 04:29:10;;;;;;;4.60;3.63;;;6.20;99.90;;;;;;5018016;28;20463;-70
2023/01/11 04:31:37;;;;;;;3.53;2.80;;;6.20;99.90;;;;;;5011785;28;20470;-70
2023/01/11 04:34:04;;;;;;;4.03;3.60;;;6.20;99.90;;;;;;5018824;28;20451;-70
2023/01/11 04:36:32;;;;;;;2.83;2.50;;;6.20;99.90;;;;;;5015956;28;20458;-70
2023/01/11 04:38:59;;;;;;;3.60;2.73;;;6.30;99.90;;;;;;5012459;28;20451;-70
2023/01/11 04:44:10;;;;;;;3.23;2.50;;;6.30;99.90;;;;;;5019076;28;21053;-70
2023/01/11 04:46:37;;;;;;;3.20;2.37;;;6.30;99.90;;;;;;5018953;28;20454;-70
2023/01/11 04:49:03;;;;;;;2.50;2.30;;;6.40;99.90;;;;;;5011449;28;20954;-69
2023/01/11 04:51:31;;;;;;;3.80;2.70;;;6.40;99.90;;;;;;5011256;28;21160;-69
2023/01/11 04:53:58;;;;;;;3.10;2.40;;;6.50;99.90;;;;;;5011214;28;20451;-70
2023/01/11 04:56:25;;;;;;;2.50;2.30;;;6.50;99.90;;;;;;5019305;28;20465;-69
2023/01/11 04:58:51;;;;;;;2.53;2.43;;;6.50;99.90;;;;;;5011519;28;20455;-69
2023/01/11 05:01:19;;;;;;;2.93;2.70;;;6.50;99.90;;;;;;5013166;28;20568;-70
2023/01/11 05:03:46;;;;;;;3.70;3.40;;;6.50;99.90;;;;;;5018372;28;20454;-69
2023/01/11 05:06:14;;;;;;;7.70;3.50;;;6.50;99.90;;;;;;5012505;28;20450;-70
2023/01/11 05:08:45;;;;;;;4.23;3.53;;;6.40;99.90;;;;;;5020663;28;20509;-70
2023/01/11 05:11:11;;;;;;;5.80;4.13;;;6.50;99.90;;;;;;5009659;28;20887;-70
2023/01/11 05:13:44;;;;;;;4.03;2.93;;;6.40;99.90;;;;;;5016163;28;20457;-70
2023/01/11 05:16:13;;;;;;;3.30;3.00;;;6.40;99.90;;;;;;5014561;28;20454;-70
2023/01/11 05:18:41;;;;;;;6.13;3.30;;;6.40;99.90;;;;;;5028376;28;20495;-69
2023/01/11 05:21:07;;;;;;;7.53;3.70;;;6.40;99.90;;;;;;5022525;28;20983;-70
2023/01/11 05:23:35;;;;;;;7.73;3.73;;;6.50;99.90;;;;;;5016506;28;20462;-70
2023/01/11 05:26:05;;;;;;;7.17;4.40;;;6.50;99.90;;;;;;5014176;28;20451;-70
2023/01/11 05:28:32;;;;;;;4.50;4.10;;;6.50;99.90;;;;;;5019224;28;20462;-70
2023/01/11 05:30:58;;;;;;;5.00;4.50;;;6.50;99.90;;;;;;5015910;28;20920;-70
2023/01/11 05:33:25;;;;;;;5.50;4.47;;;6.50;99.90;;;;;;5022311;28;20451;-70
2023/01/11 05:35:56;;;;;;;5.23;4.73;;;6.50;99.90;;;;;;5014790;28;20459;-70
2023/01/11 05:38:23;;;;;;;5.13;4.63;;;6.50;99.90;;;;;;5017383;28;20528;-70
2023/01/11 05:40:54;;;;;;;12.67;5.50;;;6.50;99.90;;;;;;5014603;28;20490;-70
2023/01/11 05:43:22;;;;;;;9.17;5.93;;;6.50;99.90;;;;;;5014624;28;20451;-70
2023/01/11 05:45:48;;;;;;;6.90;4.23;;;6.50;99.90;;;;;;5014228;28;20517;-70
2023/01/11 05:48:15;;;;;;;3.93;2.80;;;6.60;99.90;;;;;;5016704;28;20458;-70
2023/01/11 05:50:41;;;;;;;2.60;2.40;;;6.60;99.90;;;;;;5014826;28;20250;-70
2023/01/11 05:53:08;;;;;;;4.27;2.83;;;6.70;99.90;;;;;;5014531;28;20459;-70
2023/01/11 05:55:34;;;;;;;2.73;2.53;;;6.80;99.90;;;;;;5019811;28;20466;-70
2023/01/11 05:58:01;;;;;;;5.77;2.37;;;6.90;99.90;;;;;;5026276;28;20899;-70
2023/01/11 06:00:29;;;;;;;2.77;2.47;;;7.00;99.90;;;;;;5029447;28;20473;-70
2023/01/11 06:02:55;;;;;;;2.40;2.20;;;7.10;99.90;;;;;;5015526;28;20454;-70
2023/01/11 06:05:22;;;;;;;2.47;2.27;;;7.20;99.90;;;;;;5022059;28;20451;-70
2023/01/11 06:07:49;;;;;;;2.50;2.30;;;7.20;99.90;;;;;;5019840;28;20454;-70
2023/01/11 06:10:16;;;;;;;2.13;2.00;;;7.30;99.90;;;;;;5014173;28;20532;-70
2023/01/11 06:12:42;;;;;;;3.20;2.50;;;7.30;99.90;;;;;;5014115;28;20992;-70
2023/01/11 06:15:09;;;;;;;5.20;2.40;;;7.40;99.90;;;;;;5020555;28;20447;-70
2023/01/11 06:17:37;;;;;;;3.43;2.50;;;7.50;99.90;;;;;;5019770;28;20809;-70
2023/01/11 06:20:05;;;;;;;2.83;2.63;;;7.50;99.90;;;;;;5013628;28;20509;-70
2023/01/11 06:22:32;;;;;;;4.33;2.80;;;7.50;99.90;;;;;;5027558;28;20485;-70
2023/01/11 06:24:59;;;;;;;3.20;3.00;;;7.50;99.90;;;;;;5013458;28;20465;-70
2023/01/11 06:27:26;;;;;;;3.20;2.90;;;7.60;99.90;;;;;;5019313;28;20466;-70
2023/01/11 06:29:52;;;;;;;4.17;2.70;;;7.60;99.90;;;;;;5016593;28;20462;-70
2023/01/11 06:32:19;;;;;;;2.77;2.57;;;7.60;99.90;;;;;;5013825;28;20466;-69
2023/01/11 06:34:47;;;;;;;2.60;2.40;;;7.60;99.90;;;;;;5013533;28;20454;-69
2023/01/11 06:37:14;;;;;;;4.87;3.27;;;7.60;99.90;;;;;;5019651;28;20458;-70
2023/01/11 06:39:40;;;;;;;2.83;2.63;;;7.50;99.90;;;;;;5028009;28;20454;-70
2023/01/11 06:42:07;;;;;;;3.10;2.90;;;7.50;99.90;;;;;;5023323;28;20539;-69
2023/01/11 06:44:34;;;;;;;3.33;3.10;;;7.50;99.90;;;;;;5018151;28;20501;-70
2023/01/11 06:47:01;;;;;;;2.83;2.70;;;7.50;99.90;;;;;;5013131;28;20808;-70
2023/01/11 06:49:27;;;;;;;3.80;3.50;;;7.40;99.90;;;;;;5013008;28;20458;-70
2023/01/11 06:51:55;;;;;;;3.90;3.23;;;7.40;99.90;;;;;;5020831;28;20470;-70
2023/01/11 06:54:24;;;;;;;2.90;2.70;;;7.40;99.90;;;;;;5013244;28;20533;-70
2023/01/11 06:56:51;;;;;;;3.50;2.70;;;7.40;99.90;;;;;;5012773;28;20529;-70
2023/01/11 06:59:17;;;;;;;2.80;2.27;;;7.40;99.90;;;;;;5013328;28;20463;-70
2023/01/11 07:01:44;;;;;;;3.67;2.60;;;7.40;99.90;;;;;;5013204;28;20494;-70
2023/01/11 07:04:12;;;;;;;3.03;2.40;;;7.40;99.90;;;;;;5012737;28;20942;-70
2023/01/11 07:06:38;;;;;;;3.40;2.90;;;7.50;99.90;;;;;;5013115;28;20469;-70
2023/01/11 07:09:06;;;;;;;2.50;2.30;;;7.50;99.90;;;;;;5012860;28;20454;-70
2023/01/11 07:11:37;;;;;;;8.90;4.60;;;7.40;99.90;;;;;;5012689;28;21032;-70
2023/01/11 07:14:04;;;;;;;2.40;2.20;;;7.50;99.90;;;;;;5020830;28;20457;-70
2023/01/11 07:16:31;;;;;;;2.57;1.90;;;7.50;99.90;;;;;;5013086;28;20505;-70
2023/01/11 07:18:57;;;;;;;2.30;2.20;;;7.50;99.90;;;;;;5012750;28;20518;-70
2023/01/11 07:21:24;;;;;;;3.63;2.27;;;7.60;99.90;;;;;;5012971;28;20490;-70
2023/01/11 07:23:52;;;;;;;5.60;2.20;;;7.50;99.90;;;;;;5016728;28;20509;-69
2023/01/11 07:26:20;;;;;;;2.33;2.10;;;7.50;99.90;;;;;;5012658;28;20943;-70
2023/01/11 07:28:47;;;;;;;2.00;1.80;;;7.60;99.90;;;;;;5015971;28;20460;-69
2023/01/11 07:31:13;;;;;;;5.00;2.10;;;7.50;99.90;;;;;;5012642;28;20470;-69
2023/01/11 07:33:40;;;;;;;2.03;1.73;;;7.50;99.90;;;;;;5013241;28;20455;-69
2023/01/11 07:36:07;;;;;;;2.50;2.30;;;7.60;99.90;;;;;;5012346;28;20505;-70
2023/01/11 07:38:33;;;;;;;1.97;1.87;;;7.60;99.90;;;;;;5012450;28;20528;-70
2023/01/11 07:43:10;;;;;;;2.23;2.00;;;7.60;99.90;;;;;;5012376;28;20458;-70
2023/01/11 07:43:47;;;;;;;3.83;2.20;;;7.60;99.90;;;;;;5012313;28;20482;-69
2023/01/11 07:46:14;;;;;;;2.40;2.20;;;7.60;99.90;;;;;;5012336;28;20451;-69
2023/01/11 07:48:40;;;;;;;1.87;1.77;;;7.60;99.90;;;;;;5012582;28;20455;-70
2023/01/11 07:51:07;;;;;;;2.10;2.00;;;7.60;99.90;;;;;;5019834;28;20470;-70
2023/01/11 07:53:34;;;;;;;2.20;2.10;;;7.60;99.90;;;;;;5012627;28;20446;-70
2023/01/11 07:56:00;;;;;;;2.67;2.47;;;7.60;99.90;;;;;;5011945;28;20455;-70
2023/01/11 07:58:27;;;;;;;2.50;1.93;;;7.70;99.90;;;;;;5013089;28;20454;-70
2023/01/11 08:00:55;;;;;;;2.60;2.40;;;7.60;99.90;;;;;;5011623;28;20537;-70
2023/01/11 08:03:21;;;;;;;2.77;2.57;;;7.60;99.90;;;;;;5024792;28;20543;-70
2023/01/11 08:05:50;;;;;;;2.50;2.30;;;7.70;99.90;;;;;;5023920;28;20929;-68
2023/01/11 08:08:16;;;;;;;6.50;4.90;;;7.70;99.90;;;;;;5020157;28;20489;-68
2023/01/11 08:10:43;;;;;;;5.27;2.83;;;7.60;99.90;;;;;;5020005;28;20470;-68
2023/01/11 08:15:58;;;;;;;3.00;2.50;;;7.70;99.90;;;;;;5019643;28;20522;-68
2023/01/11 08:18:25;;;;;;;3.20;2.60;;;7.70;99.90;;;;;;5011905;28;20950;-68
2023/01/11 08:20:52;;;;;;;2.80;2.60;;;7.70;99.90;;;;;;5011616;28;20475;-69
2023/01/11 08:23:19;;;;;;;3.00;2.10;;;7.70;99.90;;;;;;5016406;28;20490;-68
2023/01/11 08:25:45;;;;;;;2.40;2.20;;;7.70;99.90;;;;;;5011520;28;20504;-69
2023/01/11 08:28:12;;;;;;;2.40;2.20;;;7.70;99.90;;;;;;5011895;28;20942;-68
2023/01/11 08:30:39;;;;;;;2.30;2.10;;;7.70;99.90;;;;;;5015393;28;20482;-69
2023/01/11 08:33:07;;;;;;;2.93;2.13;;;7.80;99.90;;;;;;5014375;28;20486;-69
2023/01/11 08:35:38;;;;;;;2.00;1.90;;;7.70;99.90;;;;;;5017250;28;20450;-69
2023/01/11 08:38:05;;;;;;;2.20;2.10;;;7.80;99.90;;;;;;5011618;28;20940;-69
2023/01/11 08:40:32;;;;;;;2.20;2.07;;;7.70;99.90;;;;;;5011331;28;20552;-70
2023/01/11 08:42:59;;;;;;;1.93;1.83;;;7.80;99.90;;;;;;5011501;28;20486;-69
2023/01/11 08:45:25;;;;;;;1.97;1.73;;;7.70;99.90;;;;;;5011634;28;20455;-70
2023/01/11 08:47:52;;;;;;;1.90;1.80;;;7.80;99.90;;;;;;5018964;28;20596;-69
2023/01/11 08:50:21;;;;;;;2.00;1.80;;;7.80;99.90;;;;;;5019609;28;20564;-69
2023/01/11 08:52:49;;;;;;;3.63;1.70;;;7.80;99.90;;;;;;5011212;28;20795;-70
2023/01/11 08:55:16;;;;;;;1.80;1.70;;;7.80;99.90;;;;;;5011388;28;20554;-70
2023/01/11 08:57:43;;;;;;;1.70;1.60;;;7.80;99.90;;;;;;5018329;28;20457;-70
2023/01/11 09:00:11;;;;;;;1.70;1.60;;;7.90;99.90;;;;;;5012057;28;20998;-70
2023/01/11 09:02:37;;;;;;;2.20;1.80;;;7.90;99.90;;;;;;5011340;28;20623;-70
2023/01/11 09:05:05;;;;;;;1.90;1.53;;;8.00;99.90;;;;;;5011450;28;20462;-70
2023/01/11 09:07:33;;;;;;;1.60;1.50;;;8.00;99.90;;;;;;5011402;28;20525;-70
2023/01/11 09:09:59;;;;;;;2.37;1.90;;;8.00;99.90;;;;;;5011128;28;20467;-70
2023/01/11 09:12:26;;;;;;;2.23;1.70;;;8.00;99.90;;;;;;5015917;28;20457;-70
2023/01/11 09:14:53;;;;;;;2.87;1.70;;;8.00;99.90;;;;;;5014724;28;20501;-70
2023/01/11 09:17:19;;;;;;;1.77;1.40;;;8.00;99.90;;;;;;5011084;28;20986;-70
2023/01/11 09:19:46;;;;;;;1.50;1.40;;;8.00;99.90;;;;;;5011088;28;20513;-70
2023/01/11 09:22:12;;;;;;;1.70;1.60;;;8.10;99.90;;;;;;5011160;28;20498;-70
2023/01/11 09:24:40;;;;;;;1.70;1.40;;;8.10;99.90;;;;;;5016186;28;21070;-70
2023/01/11 09:27:07;;;;;;;2.70;2.00;;;8.10;99.90;;;;;;5011011;28;20454;-70
2023/01/11 09:29:34;;;;;;;4.20;2.50;;;8.10;99.90;;;;;;5015270;28;20457;-70
2023/01/11 09:32:00;;;;;;;3.00;2.80;;;8.10;99.90;;;;;;5020123;28;20475;-70
2023/01/11 09:34:27;;;;;;;4.23;3.83;;;8.10;99.90;;;;;;5010985;28;20505;-70
2023/01/11 09:36:55;;;;;;;4.70;3.50;;;8.10;99.90;;;;;;5019315;28;20469;-69
2023/01/11 09:39:25;;;;;;;6.23;4.23;;;8.00;99.90;;;;;;5019034;28;20450;-69
2023/01/11 09:42:31;;;;;;;9.00;4.33;;;8.10;99.90;;;;;;5010903;28;20483;-70
2023/01/11 09:45:04;;;;;;;4.43;4.03;;;8.00;99.90;;;;;;5010767;28;20458;-69
2023/01/11 09:47:37;;;;;;;4.17;3.80;;;8.00;99.90;;;;;;5011184;28;20463;-70
2023/01/11 09:50:11;;;;;;;4.60;3.90;;;8.00;99.90;;;;;;5012183;28;20509;-69
2023/01/11 09:52:42;;;;;;;4.90;4.40;;;8.00;99.90;;;;;;5016171;28;20446;-70
2023/01/11 09:55:18;;;;;;;3.90;3.60;;;8.00;99.90;;;;;;5010831;28;20864;-70
2023/01/11 09:57:58;;;;;;;5.83;4.70;;;8.00;99.90;;;;;;5010904;28;20477;-69
2023/01/11 10:00:32;;;;;;;5.40;4.90;;;8.00;99.90;;;;;;5013012;28;20478;-69
2023/01/11 10:03:18;;;;;;;5.27;4.63;;;8.00;99.90;;;;;;5014108;28;20485;-70
2023/01/11 10:05:58;;;;;;;6.00;5.40;;;7.90;99.90;;;;;;5014249;28;20462;-70
2023/01/11 10:08:45;;;;;;;9.30;6.10;;;7.90;99.90;;;;;;5014470;28;20513;-70
2023/01/11 10:11:26;;;;;;;7.93;5.33;;;7.90;99.90;;;;;;5013843;28;20883;-70
2023/01/11 10:14:02;;;;;;;10.10;6.13;;;7.90;99.90;;;;;;5014368;28;20533;-69
2023/01/11 10:16:37;;;;;;;7.60;5.47;;;7.90;99.90;;;;;;5018349;28;20454;-69
2023/01/11 10:19:13;;;;;;;9.07;6.37;;;7.90;99.90;;;;;;5017295;28;20466;-69
2023/01/11 10:21:46;;;;;;;8.27;6.10;;;8.00;99.90;;;;;;5019435;28;20490;-69
2023/01/11 10:24:20;;;;;;;27.23;12.93;;;8.00;99.90;;;;;;5019235;28;20501;-69
2023/01/11 10:26:50;;;;;;;18.67;10.20;;;8.00;99.90;;;;;;5013821;28;20500;-69
2023/01/11 10:29:38;;;;;;;17.30;10.13;;;8.10;99.90;;;;;;5018156;28;20466;-69
2023/01/11 10:32:32;;;;;;;11.80;7.93;;;8.10;99.90;;;;;;5014924;28;20465;-69
2023/01/11 10:35:28;;;;;;;6.77;5.40;;;8.10;99.90;;;;;;5013682;28;20459;-69
2023/01/11 10:38:09;;;;;;;7.17;5.27;;;8.20;99.90;;;;;;5013655;28;20542;-69
2023/01/11 10:43:27;;;;;;;5.90;4.20;;;8.30;99.90;;;;;;5013144;28;20557;-70
2023/01/11 10:45:59;;;;;;;4.00;3.37;;;8.40;99.90;;;;;;5013601;28;20457;-70
2023/01/11 10:48:30;;;;;;;2.73;1.60;;;8.40;99.90;;;;;;5013509;28;20443;-70
2023/01/11 10:51:02;;;;;;;1.83;1.50;;;8.50;99.90;;;;;;5012837;28;20478;-70
2023/01/11 10:53:34;;;;;;;1.60;1.47;;;8.70;99.90;;;;;;5017518;28;20813;-69
2023/01/11 10:56:05;;;;;;;1.43;1.33;;;8.70;99.90;;;;;;5016503;28;20531;-70
2023/01/11 10:58:46;;;;;;;1.57;1.47;;;8.80;99.90;;;;;;5020700;28;20446;-69
2023/01/11 11:01:27;;;;;;;1.60;1.50;;;8.90;99.90;;;;;;5013177;28;20474;-70
2023/01/11 11:04:10;;;;;;;1.77;1.20;;;8.90;99.90;;;;;;5021528;28;20541;-69
2023/01/11 11:06:43;;;;;;;1.20;1.10;;;9.00;99.90;;;;;;5013094;28;20478;-69
2023/01/11 11:09:17;;;;;;;2.60;1.33;;;9.10;99.90;;;;;;5013024;28;20455;-69
2023/01/11 11:11:52;;;;;;;1.40;1.30;;;9.10;99.90;;;;;;5012732;28;20874;-69
2023/01/11 11:14:27;;;;;;;1.30;1.20;;;9.10;99.90;;;;;;5012903;28;20867;-70
2023/01/11 11:17:04;;;;;;;1.43;1.20;;;9.20;99.90;;;;;;5012810;28;20838;-70
2023/01/11 11:19:32;;;;;;;1.40;1.30;;;9.20;99.90;;;;;;5017176;28;20450;-70
2023/01/11 11:22:00;;;;;;;1.30;1.20;;;9.20;99.90;;;;;;5016094;28;20470;-70
2023/01/11 11:24:32;;;;;;;5.30;1.50;;;9.20;99.90;;;;;;5018668;28;20483;-70
2023/01/11 11:27:03;;;;;;;1.83;1.40;;;9.20;99.90;;;;;;5012731;28;20459;-70
2023/01/11 11:29:30;;;;;;;2.13;1.37;;;9.20;99.90;;;;;;5017741;28;20517;-69
2023/01/11 11:32:00;;;;;;;1.90;1.80;;;9.20;99.90;;;;;;5013991;28;20473;-69
2023/01/11 11:34:29;;;;;;;1.97;1.47;;;9.30;99.90;;;;;;5012472;28;20544;-69
2023/01/11 11:36:58;;;;;;;4.00;3.33;;;9.30;99.90;;;;;;5012612;28;20827;-69
2023/01/11 11:39:27;;;;;;;1.70;1.60;;;9.40;99.90;;;;;;5020791;28;20451;-69
2023/01/11 11:41:56;;;;;;;1.67;1.53;;;9.40;99.90;;;;;;5012389;28;20466;-69
2023/01/11 11:44:25;;;;;;;1.50;1.40;;;9.40;99.90;;;;;;5012082;28;20495;-69
2023/01/11 11:47:00;;;;;;;1.57;1.47;;;9.50;99.90;;;;;;5012245;28;20454;-69
2023/01/11 11:49:27;;;;;;;1.93;1.70;;;9.50;99.90;;;;;;5012526;28;20496;-69
2023/01/11 11:51:54;;;;;;;2.57;1.90;;;9.60;99.90;;;;;;5020194;28;20878;-69
2023/01/11 11:54:25;;;;;;;1.50;1.40;;;9.60;99.90;;;;;;5012111;28;20451;-69
2023/01/11 11:56:52;;;;;;;2.53;1.40;;;9.60;99.90;;;;;;5012529;28;20457;-69
2023/01/11 11:59:21;;;;;;;1.90;1.80;;;9.60;99.90;;;;;;5011970;28;21012;-69
2023/01/11 12:01:56;;;;;;;2.00;1.87;;;9.60;99.90;;;;;;5020504;28;20466;-69
2023/01/11 12:04:33;;;;;;;1.73;1.63;;;9.70;99.90;;;;;;5011906;28;20556;-69
2023/01/11 12:07:13;;;;;;;1.63;1.50;;;9.70;99.90;;;;;;5012228;28;20540;-69
2023/01/11 12:09:43;;;;;;;2.80;1.50;;;9.80;99.90;;;;;;5020407;28;20545;-69
2023/01/11 12:12:19;;;;;;;7.20;2.17;;;9.80;99.90;;;;;;5012025;28;20505;-69
2023/01/11 12:15:07;;;;;;;2.90;2.63;;;9.80;99.90;;;;;;5012081;28;20512;-69
2023/01/11 12:17:34;;;;;;;3.50;3.10;;;9.70;99.90;;;;;;5011667;28;20447;-69
2023/01/11 12:20:03;;;;;;;3.70;2.90;;;9.50;99.90;;;;;;5011881;28;20486;-69
2023/01/11 12:22:29;;;;;;;4.00;3.53;;;9.50;99.90;;;;;;5012787;28;20457;-69
2023/01/11 12:25:05;;;;;;;7.03;4.27;;;9.50;99.90;;;;;;5024118;28;20525;-69
2023/01/11 12:27:40;;;;;;;2.87;2.57;;;9.40;99.90;;;;;;5011680;28;20450;-70
2023/01/11 12:30:24;;;;;;;1.60;1.50;;;9.40;99.90;;;;;;5016749;28;20465;-69
2023/01/11 12:33:14;;;;;;;2.90;1.77;;;9.40;99.90;;;;;;5014375;28;20447;-69
2023/01/11 12:35:51;;;;;;;2.43;1.50;;;9.50;99.90;;;;;;5011685;28;20505;-69
2023/01/11 12:38:26;;;;;;;1.67;1.57;;;9.50;99.90;;;;;;5011274;28;20458;-69
2023/01/11 12:41:08;;;;;;;2.13;1.97;;;9.50;99.90;;;;;;5011913;28;20470;-69
2023/01/11 12:43:48;;;;;;;2.63;1.50;;;9.50;99.90;;;;;;5011598;28;20494;-69
2023/01/11 12:46:23;;;;;;;1.70;1.50;;;9.50;99.90;;;;;;5019550;28;20454;-69
2023/01/11 12:49:07;;;;;;;1.30;1.20;;;9.60;99.90;;;;;;5011298;28;20931;-69
2023/01/11 12:51:56;;;;;;;2.17;1.40;;;9.60;99.90;;;;;;5011168;28;20494;-69
2023/01/11 12:54:42;;;;;;;2.73;1.90;;;9.70;99.90;;;;;;5011183;28;20873;-69
2023/01/11 12:57:20;;;;;;;2.27;1.80;;;9.70;99.90;;;;;;5011332;28;20505;-69
2023/01/11 13:00:11;;;;;;;1.60;1.50;;;9.80;99.90;;;;;;5011475;28;20493;-69
2023/01/11 13:03:08;;;;;;;2.53;1.50;;;9.80;99.90;;;;;;5011553;28;20447;-69
2023/01/11 13:05:43;;;;;;;2.10;1.60;;;9.80;99.90;;;;;;5011614;28;20508;-69
2023/01/11 13:08:21;;;;;;;3.90;1.97;;;9.90;99.90;;;;;;5011276;28;20502;-69
2023/01/11 13:10:58;;;;;;;5.43;1.67;;;9.90;99.90;;;;;;5011414;28;20477;-69
2023/01/11 13:13:31;;;;;;;6.63;1.93;;;9.90;99.90;;;;;;5010964;28;20454;-69
2023/01/11 13:16:02;;;;;;;5.07;2.20;;;9.90;99.90;;;;;;5011527;28;20446;-69
2023/01/11 13:18:36;;;;;;;6.60;2.00;;;10.00;99.90;;;;;;5011110;28;20504;-69
2023/01/11 13:21:13;;;;;;;8.97;2.00;;;9.90;99.90;;;;;;5011337;28;20809;-69
2023/01/11 13:23:44;;;;;;;7.20;1.90;;;9.90;99.90;;;;;;5017703;28;20478;-69
2023/01/11 13:26:21;;;;;;;4.57;1.90;;;9.90;99.90;;;;;;5011163;28;20447;-69
2023/01/11 13:28:53;;;;;;;3.20;2.00;;;9.90;99.90;;;;;;5014581;28;20790;-69
2023/01/11 13:31:20;;;;;;;7.20;2.77;;;9.90;99.90;;;;;;5012534;28;20541;-69
2023/01/11 13:33:53;;;;;;;5.43;2.30;;;9.90;99.90;;;;;;5015119;28;20443;-69